東京理科大学Ⅰ部体育局航空部

このエントリーをはてなブックマークに追加

ようこそ、理科大航空部HPへ! ここでは、航空部に関する情報や、活動などをお知らせしています。


METAR・TAF

TOKYO INTERNATIONAL
Metar
RJTT 190500Z 22014KT 9999 FEW040 SCT/// 13/01 Q1012 NOSIG RMK 1CU040 A2989

05:00 UTC

Wind: 220° 14kt

Visibility: 9999 m

Sky: FEW 4000 ft

Temp: 13 deg C / 55.4 deg F

Dewpoint: 1 deg C / 33.8 deg F

Pressure: 1012 hPa

TAF
TAF RJTT 182305Z 1900/2006 25005KT 9999 FEW030 BECMG 1900/1902 18012KT BECMG 1918/1921 26005KT BECMG 2000/2003 18010KT
NARITA INTERNATIONAL
Metar
RJAA 190500Z 22005KT 170V260 9999 FEW030 12/01 Q1012 NOSIG RMK 1CU030 A2989

05:00 UTC

Wind: 220° 5kt

Visibility: 9999 m

Sky: FEW 3000 ft

Temp: 12 deg C / 53.6 deg F

Dewpoint: 1 deg C / 33.8 deg F

Pressure: 1012 hPa

TAF
TAF AMD RJAA 190332Z 1903/2006 22009KT 9999 FEW030 BECMG 1912/1915 26004KT